createdAt,value
2023-02-11T00:02:24.286Z,-1.55
2023-02-11T00:05:26.234Z,-1.52
2023-02-11T00:08:28.675Z,-1.63
2023-02-11T00:11:30.729Z,-1.67
2023-02-11T00:14:32.695Z,-1.73
2023-02-11T00:17:34.657Z,-1.64
2023-02-11T00:20:39.226Z,-1.71
2023-02-11T00:23:41.796Z,-1.74
2023-02-11T00:26:43.783Z,-1.66
2023-02-11T00:29:45.836Z,-1.70
2023-02-11T00:32:47.774Z,-1.65
2023-02-11T00:35:50.151Z,-1.61
2023-02-11T00:38:55.268Z,-1.53
2023-02-11T00:41:58.120Z,-1.52
2023-02-11T00:45:00.085Z,-1.53
2023-02-11T00:48:02.080Z,-1.49
2023-02-11T00:51:04.483Z,-1.64
2023-02-11T00:54:06.549Z,-1.73
2023-02-11T00:57:08.484Z,-1.83
2023-02-11T01:00:14.059Z,-1.96
2023-02-11T01:03:16.175Z,-2.02
2023-02-11T01:06:18.990Z,-2.00
2023-02-11T01:09:21.345Z,-2.30
2023-02-11T01:12:23.580Z,-2.06
2023-02-11T01:15:26.049Z,-2.12
2023-02-11T01:18:28.206Z,-2.11
2023-02-11T01:21:30.248Z,-2.19
2023-02-11T01:24:32.359Z,-2.53
2023-02-11T01:27:35.054Z,-2.31
2023-02-11T01:30:37.048Z,-2.33
2023-02-11T01:33:39.173Z,-2.39
2023-02-11T01:36:42.073Z,-2.53
2023-02-11T01:39:44.129Z,-2.57
2023-02-11T01:42:49.433Z,-2.39
2023-02-11T01:45:56.022Z,-2.44
2023-02-11T01:49:05.412Z,-2.49
2023-02-11T01:52:13.029Z,-2.50
2023-02-11T01:55:34.239Z,-2.61
2023-02-11T01:58:41.726Z,-2.55
2023-02-11T02:01:49.289Z,-2.63
2023-02-11T02:05:02.757Z,-2.65
2023-02-11T02:08:44.458Z,-2.73
2023-02-11T02:11:46.391Z,-2.86
2023-02-11T02:14:48.973Z,-2.91
2023-02-11T02:18:24.730Z,-2.98
2023-02-11T02:22:04.248Z,-2.95
2023-02-11T02:25:12.935Z,-3.11
2023-02-11T02:28:49.926Z,-3.01
2023-02-11T02:32:10.466Z,-3.04
2023-02-11T02:35:24.647Z,-2.91
2023-02-11T02:38:41.044Z,-2.97
2023-02-11T02:41:44.297Z,-2.90
2023-02-11T02:44:53.555Z,-3.19
2023-02-11T02:47:56.021Z,-2.81
2023-02-11T02:51:06.650Z,-2.83
2023-02-11T02:54:39.145Z,-2.83
2023-02-11T02:58:05.559Z,-2.69
2023-02-11T03:01:22.234Z,-2.57
2023-02-11T03:04:40.299Z,-2.39
2023-02-11T03:07:52.407Z,-2.44
2023-02-11T03:10:56.943Z,-1.94
2023-02-11T03:14:04.125Z,-1.08
2023-02-11T03:17:08.772Z,-0.81
2023-02-11T03:20:14.800Z,-0.68
2023-02-11T03:23:28.480Z,-0.72
2023-02-11T03:27:07.043Z,-0.71
2023-02-11T03:30:22.865Z,-0.68
2023-02-11T03:33:29.407Z,-0.78
2023-02-11T03:36:51.823Z,-0.81
2023-02-11T03:39:59.667Z,-0.38
2023-02-11T03:43:09.161Z,-0.29
2023-02-11T03:46:15.339Z,-0.41
2023-02-11T03:49:21.655Z,-0.48
2023-02-11T03:52:26.649Z,-0.48
2023-02-11T03:55:30.256Z,-0.60
2023-02-11T03:58:32.189Z,-0.34
2023-02-11T04:01:34.436Z,-0.38
2023-02-11T04:04:36.429Z,-0.18
2023-02-11T04:07:38.372Z,-0.04
2023-02-11T04:10:40.308Z,0.21
2023-02-11T04:13:42.268Z,0.39
2023-02-11T04:16:44.366Z,0.46
2023-02-11T04:19:46.377Z,0.50
2023-02-11T04:22:48.409Z,0.60
2023-02-11T04:25:51.316Z,0.65
2023-02-11T04:28:53.387Z,0.58
2023-02-11T04:31:55.909Z,0.42
2023-02-11T04:34:57.961Z,0.35
2023-02-11T04:37:59.846Z,0.11
2023-02-11T04:41:01.826Z,0.07
2023-02-11T04:44:04.233Z,0.04
2023-02-11T04:47:06.982Z,0.03
2023-02-11T04:50:09.471Z,-0.08
2023-02-11T04:53:11.387Z,-0.10
2023-02-11T04:56:13.336Z,0.01
2023-02-11T04:59:15.662Z,-0.02
2023-02-11T05:02:17.709Z,0.43
2023-02-11T05:05:19.761Z,0.55
2023-02-11T05:08:21.818Z,0.78
2023-02-11T05:11:25.811Z,0.98
2023-02-11T05:14:27.800Z,1.15
2023-02-11T05:17:29.768Z,1.15
2023-02-11T05:20:31.787Z,1.08
2023-02-11T05:23:34.379Z,0.94
2023-02-11T05:26:36.491Z,0.31
2023-02-11T05:29:38.728Z,0.90
2023-02-11T05:32:40.826Z,1.05
2023-02-11T05:35:42.830Z,0.78
2023-02-11T05:38:44.753Z,1.27
2023-02-11T05:41:46.716Z,1.34
2023-02-11T05:44:50.630Z,1.41
2023-02-11T05:47:52.752Z,1.58
2023-02-11T05:50:54.752Z,1.57
2023-02-11T05:53:56.658Z,1.55
2023-02-11T05:56:58.647Z,1.49
2023-02-11T06:00:00.664Z,1.59
2023-02-11T06:03:04.569Z,1.68
2023-02-11T06:06:10.636Z,1.53
2023-02-11T06:09:12.642Z,1.72
2023-02-11T06:12:14.558Z,1.77
2023-02-11T06:15:16.612Z,1.87
2023-02-11T06:18:18.529Z,1.80
2023-02-11T06:21:20.495Z,1.69
2023-02-11T06:24:47.647Z,2.00
2023-02-11T06:27:44.623Z,2.11
2023-02-11T06:30:46.652Z,2.18
2023-02-11T06:33:50.318Z,2.25
2023-02-11T06:36:52.286Z,2.15
2023-02-11T06:39:54.273Z,2.40
2023-02-11T06:42:56.282Z,2.49
2023-02-11T06:45:58.298Z,2.54
2023-02-11T06:49:00.157Z,2.59
2023-02-11T06:52:02.184Z,2.59
2023-02-11T06:55:04.364Z,2.69
2023-02-11T06:58:06.667Z,2.72
2023-02-11T07:01:11.417Z,2.80
2023-02-11T07:04:14.917Z,2.75
2023-02-11T07:07:16.870Z,2.93
2023-02-11T07:10:18.949Z,3.05
2023-02-11T07:13:20.868Z,3.17
2023-02-11T07:16:23.457Z,3.28
2023-02-11T07:19:25.473Z,3.31
2023-02-11T07:22:27.599Z,3.44
2023-02-11T07:25:29.657Z,3.32
2023-02-11T07:28:31.947Z,3.51
2023-02-11T07:31:34.251Z,3.68
2023-02-11T07:34:36.291Z,3.80
2023-02-11T07:37:38.337Z,3.84
2023-02-11T07:40:40.478Z,3.91
2023-02-11T07:43:42.930Z,4.00
2023-02-11T07:46:45.780Z,4.07
2023-02-11T07:49:47.860Z,4.14
2023-02-11T07:52:49.836Z,4.07
2023-02-11T07:55:52.099Z,4.23
2023-02-11T07:58:55.370Z,4.26
2023-02-11T08:01:57.521Z,4.30
2023-02-11T08:04:59.512Z,4.31
2023-02-11T08:08:01.480Z,4.32
2023-02-11T08:11:08.668Z,4.39
2023-02-11T08:14:11.917Z,4.44
2023-02-11T08:17:13.842Z,4.54
2023-02-11T08:20:15.943Z,4.56
2023-02-11T08:23:17.901Z,4.52
2023-02-11T08:26:25.880Z,4.70
2023-02-11T08:29:27.893Z,4.73
2023-02-11T08:32:29.904Z,4.64
2023-02-11T08:35:36.598Z,4.70
2023-02-11T08:38:38.755Z,4.58
2023-02-11T08:41:40.841Z,4.24
2023-02-11T08:44:43.432Z,4.50
2023-02-11T08:47:45.408Z,4.53
2023-02-11T08:50:47.518Z,4.70
2023-02-11T08:53:50.872Z,4.78
2023-02-11T08:56:52.798Z,5.00
2023-02-11T08:59:54.843Z,5.17
2023-02-11T09:02:56.790Z,5.35
2023-02-11T09:05:58.764Z,5.46
2023-02-11T09:09:00.696Z,5.52
2023-02-11T09:12:02.660Z,5.63
2023-02-11T09:15:04.942Z,5.52
2023-02-11T09:18:07.579Z,5.71
2023-02-11T09:21:10.447Z,5.85
2023-02-11T09:24:12.519Z,5.76
2023-02-11T09:27:14.560Z,5.94
2023-02-11T09:30:16.517Z,6.10
2023-02-11T09:33:18.610Z,6.28
2023-02-11T09:36:31.873Z,5.88
2023-02-11T09:39:33.854Z,6.12
2023-02-11T09:42:53.967Z,6.06
2023-02-11T09:45:56.683Z,5.90
2023-02-11T09:49:00.279Z,6.24
2023-02-11T09:52:07.716Z,6.09
2023-02-11T09:55:27.548Z,6.24
2023-02-11T09:58:39.159Z,6.49
2023-02-11T10:02:04.891Z,6.71
2023-02-11T10:05:13.920Z,6.84
2023-02-11T10:09:12.871Z,8.17
2023-02-11T10:12:39.201Z,10.06
2023-02-11T10:16:15.069Z,10.50
2023-02-11T10:20:01.259Z,10.28
2023-02-11T10:23:13.593Z,10.12
2023-02-11T10:26:18.669Z,9.94
2023-02-11T10:29:42.294Z,10.02
2023-02-11T10:32:52.868Z,11.27
2023-02-11T10:35:54.911Z,10.19
2023-02-11T10:39:10.755Z,9.59
2023-02-11T10:42:14.597Z,8.82
2023-02-11T10:45:27.835Z,8.17
2023-02-11T10:48:53.019Z,7.87
2023-02-11T10:52:14.326Z,7.60
2023-02-11T10:55:21.306Z,7.60
2023-02-11T10:58:45.850Z,7.62
2023-02-11T11:02:00.775Z,7.63
2023-02-11T11:05:16.420Z,7.52
2023-02-11T11:08:19.925Z,7.57
2023-02-11T11:11:26.413Z,7.67
2023-02-11T11:14:29.761Z,7.65
2023-02-11T11:17:31.837Z,7.47
2023-02-11T11:20:36.324Z,7.36
2023-02-11T11:23:40.122Z,7.45
2023-02-11T11:26:45.352Z,7.70
2023-02-11T11:29:50.265Z,7.74
2023-02-11T11:32:52.705Z,7.70
2023-02-11T11:36:21.263Z,7.87
2023-02-11T11:39:27.994Z,7.92
2023-02-11T11:42:34.948Z,7.85
2023-02-11T11:45:37.063Z,7.84
2023-02-11T11:48:42.699Z,8.08
2023-02-11T11:51:55.224Z,8.12
2023-02-11T11:55:22.601Z,7.86
2023-02-11T11:58:24.826Z,8.13
2023-02-11T12:01:45.739Z,7.96
2023-02-11T12:04:54.057Z,7.72
2023-02-11T12:08:29.335Z,7.52
2023-02-11T12:11:38.390Z,7.49
2023-02-11T12:14:43.010Z,7.47
2023-02-11T12:18:13.085Z,7.70
2023-02-11T12:21:43.085Z,7.96
2023-02-11T12:24:45.191Z,8.17
2023-02-11T12:28:02.310Z,8.14
2023-02-11T12:31:19.514Z,8.04
2023-02-11T12:34:24.893Z,7.83
2023-02-11T12:37:26.975Z,7.91
2023-02-11T12:40:59.455Z,7.95
2023-02-11T12:44:01.886Z,7.91
2023-02-11T12:47:29.106Z,7.52
2023-02-11T12:50:34.274Z,7.79
2023-02-11T12:54:10.436Z,7.81
2023-02-11T12:57:37.447Z,7.41
2023-02-11T13:00:47.864Z,7.51
2023-02-11T13:04:20.262Z,7.51
2023-02-11T13:07:37.282Z,7.30
2023-02-11T13:10:43.729Z,7.23
2023-02-11T13:13:46.335Z,7.31
2023-02-11T13:16:51.190Z,7.46
2023-02-11T13:20:03.936Z,7.11
2023-02-11T13:23:32.180Z,7.13
2023-02-11T13:26:58.289Z,7.25
2023-02-11T13:30:22.770Z,7.05
2023-02-11T13:33:36.307Z,6.79
2023-02-11T13:36:39.875Z,7.04
2023-02-11T13:39:42.040Z,6.95
2023-02-11T13:42:53.330Z,6.89
2023-02-11T13:46:01.400Z,6.82
2023-02-11T13:49:03.643Z,6.62
2023-02-11T13:52:18.921Z,6.46
2023-02-11T13:55:24.507Z,6.27
2023-02-11T13:58:30.062Z,6.52
2023-02-11T14:02:12.693Z,6.41
2023-02-11T14:05:50.398Z,6.25
2023-02-11T14:09:11.980Z,6.14
2023-02-11T14:12:24.397Z,6.26
2023-02-11T14:15:38.351Z,6.25
2023-02-11T14:18:52.853Z,6.21
2023-02-11T14:22:12.146Z,6.23
2023-02-11T14:25:23.243Z,6.20
2023-02-11T14:28:34.595Z,6.24
2023-02-11T14:31:55.522Z,6.14
2023-02-11T14:35:37.829Z,6.06
2023-02-11T14:38:52.414Z,5.99
2023-02-11T14:41:55.573Z,6.06
2023-02-11T14:45:04.835Z,5.96
2023-02-11T14:48:17.957Z,5.79
2023-02-11T14:51:29.136Z,5.63
2023-02-11T14:54:32.578Z,5.58
2023-02-11T14:57:35.776Z,5.49
2023-02-11T15:01:14.104Z,5.44
2023-02-11T15:04:40.766Z,5.37
2023-02-11T15:07:52.438Z,5.37
2023-02-11T15:10:55.996Z,5.35
2023-02-11T15:14:07.234Z,5.40
2023-02-11T15:17:10.096Z,5.35
2023-02-11T15:20:26.288Z,5.25
2023-02-11T15:23:31.026Z,5.21
2023-02-11T15:26:34.068Z,5.03
2023-02-11T15:29:40.069Z,5.23
2023-02-11T15:32:45.405Z,5.21
2023-02-11T15:35:47.845Z,5.02
2023-02-11T15:39:29.449Z,5.17
2023-02-11T15:42:43.887Z,5.04
2023-02-11T15:46:02.494Z,5.18
2023-02-11T15:49:06.756Z,5.24
2023-02-11T15:52:09.937Z,5.15
2023-02-11T15:55:14.954Z,5.15
2023-02-11T15:58:18.699Z,5.02
2023-02-11T16:01:34.280Z,4.96
2023-02-11T16:04:38.322Z,4.83
2023-02-11T16:07:48.080Z,4.40
2023-02-11T16:11:02.692Z,4.61
2023-02-11T16:14:22.367Z,4.56
2023-02-11T16:17:31.064Z,4.51
2023-02-11T16:20:34.955Z,4.48
2023-02-11T16:23:45.428Z,4.44
2023-02-11T16:26:53.274Z,4.50
2023-02-11T16:29:57.168Z,4.44
2023-02-11T16:32:59.942Z,4.50
2023-02-11T16:36:20.039Z,4.56
2023-02-11T16:39:23.370Z,4.42
2023-02-11T16:42:26.067Z,4.65
2023-02-11T16:45:29.040Z,4.70
2023-02-11T16:48:33.536Z,4.68
2023-02-11T16:51:41.446Z,4.71
2023-02-11T16:54:44.710Z,4.71
2023-02-11T16:57:47.680Z,4.72
2023-02-11T17:00:52.052Z,4.43
2023-02-11T17:03:56.628Z,4.71
2023-02-11T17:06:59.909Z,4.76
2023-02-11T17:10:03.018Z,4.65
2023-02-11T17:13:06.035Z,4.59
2023-02-11T17:16:21.045Z,4.54
2023-02-11T17:19:24.805Z,4.50
2023-02-11T17:22:27.811Z,4.51
2023-02-11T17:25:30.900Z,4.42
2023-02-11T17:28:34.873Z,4.47
2023-02-11T17:31:38.087Z,4.42
2023-02-11T17:34:41.411Z,4.05
2023-02-11T17:37:43.971Z,4.36
2023-02-11T17:40:46.933Z,4.24
2023-02-11T17:43:49.940Z,4.32
2023-02-11T17:46:54.151Z,4.34
2023-02-11T17:49:57.607Z,4.38
2023-02-11T17:53:01.246Z,4.35
2023-02-11T17:56:06.686Z,4.52
2023-02-11T17:59:11.803Z,4.59
2023-02-11T18:02:15.012Z,4.62
2023-02-11T18:05:17.922Z,4.58
2023-02-11T18:08:22.266Z,4.62
2023-02-11T18:11:45.230Z,4.56
2023-02-11T18:14:47.983Z,4.46
2023-02-11T18:17:50.990Z,4.63
2023-02-11T18:21:02.128Z,4.70
2023-02-11T18:24:07.048Z,4.72
2023-02-11T18:27:10.172Z,4.73
2023-02-11T18:30:18.363Z,4.65
2023-02-11T18:33:21.358Z,4.73
2023-02-11T18:36:24.115Z,4.70
2023-02-11T18:39:26.819Z,4.85
2023-02-11T18:42:30.001Z,4.87
2023-02-11T18:45:33.179Z,4.82
2023-02-11T18:48:39.776Z,4.80
2023-02-11T18:51:42.473Z,4.61
2023-02-11T18:54:47.269Z,4.69
2023-02-11T18:57:50.306Z,4.76
2023-02-11T19:00:53.302Z,4.77
2023-02-11T19:04:00.038Z,4.75
2023-02-11T19:07:05.171Z,4.76
2023-02-11T19:10:09.515Z,4.75
2023-02-11T19:13:14.293Z,4.75
2023-02-11T19:16:20.594Z,4.78
2023-02-11T19:19:26.022Z,4.71
2023-02-11T19:22:29.375Z,4.64
2023-02-11T19:25:32.830Z,4.65
2023-02-11T19:28:38.109Z,4.71
2023-02-11T19:31:41.734Z,4.76
2023-02-11T19:34:45.120Z,4.77
2023-02-11T19:37:48.515Z,4.78
2023-02-11T19:40:57.264Z,4.78
2023-02-11T19:44:02.238Z,4.80
2023-02-11T19:47:05.596Z,4.65
2023-02-11T19:50:10.948Z,4.84
2023-02-11T19:53:14.096Z,4.78
2023-02-11T19:56:19.766Z,4.70
2023-02-11T19:59:23.936Z,4.59
2023-02-11T20:02:26.868Z,4.81
2023-02-11T20:05:29.801Z,4.79
2023-02-11T20:08:35.345Z,4.82
2023-02-11T20:11:40.138Z,4.86
2023-02-11T20:14:43.306Z,4.87
2023-02-11T20:17:47.626Z,4.86
2023-02-11T20:20:50.642Z,4.86
2023-02-11T20:23:54.580Z,4.87
2023-02-11T20:26:57.893Z,4.84
2023-02-11T20:30:01.123Z,4.89
2023-02-11T20:33:05.643Z,4.88
2023-02-11T20:36:15.536Z,4.79
2023-02-11T20:39:19.353Z,4.68
2023-02-11T20:42:23.418Z,4.80
2023-02-11T20:45:27.486Z,4.84
2023-02-11T20:48:31.041Z,4.57
2023-02-11T20:51:34.925Z,4.80
2023-02-11T20:54:39.197Z,4.74
2023-02-11T20:57:41.892Z,4.75
2023-02-11T21:00:46.387Z,4.82
2023-02-11T21:04:05.798Z,4.73
2023-02-11T21:07:08.747Z,4.76
2023-02-11T21:10:11.713Z,4.75
2023-02-11T21:13:14.509Z,4.80
2023-02-11T21:16:25.215Z,4.68
2023-02-11T21:19:28.561Z,4.72
2023-02-11T21:22:31.974Z,4.58
2023-02-11T21:25:35.292Z,4.76
2023-02-11T21:28:40.890Z,4.80
2023-02-11T21:31:44.348Z,4.84
2023-02-11T21:34:48.252Z,4.78
2023-02-11T21:37:51.094Z,4.79
2023-02-11T21:40:55.327Z,4.79
2023-02-11T21:43:58.190Z,4.81
2023-02-11T21:47:01.094Z,4.86
2023-02-11T21:50:03.942Z,4.58
2023-02-11T21:53:07.127Z,4.86
2023-02-11T21:56:13.166Z,4.86
2023-02-11T21:59:16.975Z,4.84
2023-02-11T22:02:19.434Z,4.81
2023-02-11T22:05:22.188Z,4.64
2023-02-11T22:08:24.267Z,4.60
2023-02-11T22:11:26.443Z,4.62
2023-02-11T22:14:31.261Z,4.60
2023-02-11T22:17:34.785Z,4.58
2023-02-11T22:20:36.923Z,4.60
2023-02-11T22:23:40.099Z,4.61
2023-02-11T22:26:42.165Z,4.60
2023-02-11T22:29:44.782Z,4.57
2023-02-11T22:32:47.615Z,4.64
2023-02-11T22:35:49.771Z,4.59
2023-02-11T22:38:52.453Z,4.57
2023-02-11T22:41:56.578Z,4.58
2023-02-11T22:44:58.567Z,4.55
2023-02-11T22:48:00.690Z,4.60
2023-02-11T22:51:19.584Z,4.61
2023-02-11T22:54:21.713Z,4.59
2023-02-11T22:57:23.765Z,4.58
2023-02-11T23:00:26.661Z,4.64
2023-02-11T23:03:29.292Z,4.64
2023-02-11T23:06:31.668Z,4.70
2023-02-11T23:09:33.647Z,4.52
2023-02-11T23:12:35.592Z,4.58
2023-02-11T23:15:42.340Z,4.51
2023-02-11T23:18:46.516Z,4.53
2023-02-11T23:21:51.124Z,4.59
2023-02-11T23:24:53.301Z,4.58
2023-02-11T23:27:55.215Z,4.62
2023-02-11T23:30:57.281Z,4.70
2023-02-11T23:33:59.642Z,4.52
2023-02-11T23:37:01.552Z,4.65
2023-02-11T23:40:04.430Z,4.68
2023-02-11T23:43:06.380Z,4.72
2023-02-11T23:46:09.331Z,4.78
2023-02-11T23:49:11.413Z,4.85
2023-02-11T23:52:13.376Z,4.90
2023-02-11T23:55:15.397Z,4.89
2023-02-11T23:58:17.429Z,4.85
